Aviation Digital Data Service (ADDS)

Output produced by METARs form (1305 UTC 21 April 2014)
found at http://aviationweather.gov/adds/metars/
 
KGON 211132Z 2112/2212 03003KT P6SM FEW250 
     TEMPO 2112/2113 BKN004 
     FM211500 15006KT P6SM FEW250 
     FM211700 19009KT P6SM FEW250 
     FM220000 20003KT P6SM SCT250 
     FM220600 20003KT P6SM FEW005 BKN250